createdAt,value
2023-02-04T00:01:46.246Z,101725.66
2023-02-04T00:04:13.281Z,101734.19
2023-02-04T00:06:40.114Z,101742.25
2023-02-04T00:09:06.708Z,101749.78
2023-02-04T00:11:33.248Z,101752.44
2023-02-04T00:13:59.820Z,101758.91
2023-02-04T00:16:26.438Z,101763.19
2023-02-04T00:18:53.044Z,101777.66
2023-02-04T00:21:19.564Z,101791.38
2023-02-04T00:23:46.156Z,101803.69
2023-02-04T00:26:12.744Z,101804.75
2023-02-04T00:28:40.634Z,101817.34
2023-02-04T00:31:07.217Z,101815.75
2023-02-04T00:33:33.779Z,101831.56
2023-02-04T00:36:00.310Z,101844.72
2023-02-04T00:38:26.832Z,101843.34
2023-02-04T00:40:53.376Z,101848.69
2023-02-04T00:43:19.906Z,101860.78
2023-02-04T00:45:46.475Z,101876.28
2023-02-04T00:48:13.035Z,101885.97
2023-02-04T00:50:39.892Z,101896.19
2023-02-04T00:53:07.479Z,101918.19
2023-02-04T00:55:34.045Z,101934.31
2023-02-04T00:58:00.581Z,101935.38
2023-02-04T01:00:27.361Z,101949.59
2023-02-04T01:02:53.929Z,101957.66
2023-02-04T01:05:20.458Z,101965.44
2023-02-04T01:07:47.063Z,101964.88
2023-02-04T01:10:14.779Z,101982.59
2023-02-04T01:12:41.555Z,101981.50
2023-02-04T01:15:08.689Z,102000.78
2023-02-04T01:17:35.262Z,102006.94
2023-02-04T01:20:01.782Z,102012.56
2023-02-04T01:22:28.315Z,102019.22
2023-02-04T01:24:55.341Z,102033.16
2023-02-04T01:27:40.505Z,102043.31
2023-02-04T01:30:08.516Z,102056.41
2023-02-04T01:32:35.250Z,102065.22
2023-02-04T01:35:01.787Z,102058.81
2023-02-04T01:37:28.325Z,102064.97
2023-02-04T01:39:54.860Z,102073.53
2023-02-04T01:42:21.397Z,102076.47
2023-02-04T01:44:48.076Z,102092.25
2023-02-04T01:47:14.664Z,102101.34
2023-02-04T01:49:41.218Z,102103.25
2023-02-04T01:52:09.076Z,102110.44
2023-02-04T01:54:35.556Z,102120.59
2023-02-04T01:57:02.101Z,102120.81
2023-02-04T01:59:28.672Z,102135.25
2023-02-04T02:01:55.148Z,102153.72
2023-02-04T02:04:32.882Z,102153.72
2023-02-04T02:07:04.155Z,102164.44
2023-02-04T02:09:31.726Z,102173.50
2023-02-04T02:11:58.535Z,102176.66
2023-02-04T02:14:26.118Z,102191.66
2023-02-04T02:16:52.657Z,102193.28
2023-02-04T02:19:33.494Z,102194.66
2023-02-04T02:22:07.328Z,102207.25
2023-02-04T02:24:35.444Z,102213.41
2023-02-04T02:27:04.757Z,102215.00
2023-02-04T02:29:31.484Z,102217.41
2023-02-04T02:31:59.142Z,102221.66
2023-02-04T02:34:29.249Z,102229.59
2023-02-04T02:36:57.054Z,102233.59
2023-02-04T02:39:23.990Z,102247.78
2023-02-04T02:41:50.604Z,102243.75
2023-02-04T02:44:17.471Z,102263.53
2023-02-04T02:46:44.264Z,102264.31
2023-02-04T02:49:30.983Z,102272.31
2023-02-04T02:51:57.738Z,102283.00
2023-02-04T02:54:28.755Z,102297.97
2023-02-04T02:56:57.940Z,102303.91
2023-02-04T02:59:25.198Z,102296.94
2023-02-04T03:01:54.808Z,102302.78
2023-02-04T03:04:22.671Z,102304.94
2023-02-04T03:06:49.604Z,102306.47
2023-02-04T03:09:16.227Z,102313.97
2023-02-04T03:11:46.714Z,102320.88
2023-02-04T03:14:13.211Z,102326.22
2023-02-04T03:16:40.564Z,102326.22
2023-02-04T03:19:07.823Z,102333.94
2023-02-04T03:21:34.542Z,102346.50
2023-02-04T03:24:03.009Z,102350.16
2023-02-04T03:26:29.709Z,102357.38
2023-02-04T03:28:56.409Z,102366.97
2023-02-04T03:31:24.713Z,102378.16
2023-02-04T03:33:51.318Z,102390.22
2023-02-04T03:36:17.808Z,102397.44
2023-02-04T03:38:44.282Z,102408.13
2023-02-04T03:41:10.770Z,102411.28
2023-02-04T03:43:37.301Z,102423.03
2023-02-04T03:46:03.913Z,102427.56
2023-02-04T03:48:30.481Z,102433.97
2023-02-04T03:50:56.945Z,102440.06
2023-02-04T03:53:24.461Z,102456.91
2023-02-04T03:55:50.933Z,102467.13
2023-02-04T03:58:17.508Z,102465.22
2023-02-04T04:00:44.055Z,102472.69
2023-02-04T04:03:10.721Z,102478.28
2023-02-04T04:05:37.287Z,102482.56
2023-02-04T04:08:03.828Z,102491.41
2023-02-04T04:10:30.631Z,102500.97
2023-02-04T04:12:57.385Z,102499.13
2023-02-04T04:15:24.139Z,102507.13
2023-02-04T04:17:50.772Z,102516.28
2023-02-04T04:20:17.426Z,102529.66
2023-02-04T04:22:45.792Z,102533.63
2023-02-04T04:25:12.346Z,102537.41
2023-02-04T04:27:38.858Z,102549.66
2023-02-04T04:30:05.486Z,102553.72
2023-02-04T04:32:32.017Z,102553.44
2023-02-04T04:34:58.555Z,102554.50
2023-02-04T04:37:25.066Z,102559.59
2023-02-04T04:39:51.583Z,102571.75
2023-02-04T04:42:18.058Z,102585.06
2023-02-04T04:44:44.564Z,102590.41
2023-02-04T04:47:11.086Z,102588.16
2023-02-04T04:49:37.676Z,102594.53
2023-02-04T04:52:04.416Z,102602.44
2023-02-04T04:54:30.894Z,102605.28
2023-02-04T04:56:57.520Z,102605.78
2023-02-04T04:59:24.037Z,102617.53
2023-02-04T05:01:50.901Z,102630.91
2023-02-04T05:04:17.452Z,102632.22
2023-02-04T05:06:44.055Z,102645.81
2023-02-04T05:09:10.601Z,102655.44
2023-02-04T05:11:37.065Z,102657.56
2023-02-04T05:14:03.577Z,102658.56
2023-02-04T05:16:30.152Z,102659.00
2023-02-04T05:18:56.712Z,102668.72
2023-02-04T05:21:23.198Z,102673.31
2023-02-04T05:23:49.918Z,102677.84
2023-02-04T05:26:28.502Z,102676.94
2023-02-04T05:28:56.795Z,102689.88
2023-02-04T05:31:23.548Z,102689.16
2023-02-04T05:33:50.185Z,102698.69
2023-02-04T05:36:17.939Z,102701.63
2023-02-04T05:38:44.595Z,102707.66
2023-02-04T05:41:11.081Z,102707.94
2023-02-04T05:43:37.700Z,102717.91
2023-02-04T05:46:04.457Z,102723.50
2023-02-04T05:48:31.058Z,102735.72
2023-02-04T05:50:57.606Z,102734.56
2023-02-04T05:53:25.909Z,102741.53
2023-02-04T05:55:52.772Z,102748.84
2023-02-04T05:58:19.308Z,102754.44
2023-02-04T06:00:45.919Z,102753.63
2023-02-04T06:03:14.643Z,102758.59
2023-02-04T06:05:41.459Z,102770.56
2023-02-04T06:08:08.037Z,102775.56
2023-02-04T06:10:34.628Z,102785.22
2023-02-04T06:13:01.190Z,102789.16
2023-02-04T06:15:27.698Z,102798.34
2023-02-04T06:17:54.305Z,102802.06
2023-02-04T06:20:20.836Z,102809.94
2023-02-04T06:22:47.691Z,102809.00
2023-02-04T06:25:14.304Z,102813.88
2023-02-04T06:27:40.892Z,102822.38
2023-02-04T06:30:07.905Z,102827.59
2023-02-04T06:32:34.412Z,102830.03
2023-02-04T06:35:00.928Z,102829.91
2023-02-04T06:37:27.496Z,102830.94
2023-02-04T06:39:54.813Z,102838.13
2023-02-04T06:42:21.412Z,102836.50
2023-02-04T06:44:47.910Z,102828.16
2023-02-04T06:47:14.413Z,102831.63
2023-02-04T06:49:41.031Z,102835.34
2023-02-04T06:52:07.536Z,102836.41
2023-02-04T06:54:34.199Z,102838.47
2023-02-04T06:57:06.554Z,102830.81
2023-02-04T06:59:34.488Z,102830.22
2023-02-04T07:02:00.986Z,102839.38
2023-02-04T07:04:27.774Z,102841.03
2023-02-04T07:06:54.253Z,102841.47
2023-02-04T07:09:20.808Z,102843.94
2023-02-04T07:11:47.297Z,102846.72
2023-02-04T07:14:13.784Z,102851.81
2023-02-04T07:16:40.694Z,102861.81
2023-02-04T07:19:07.208Z,102854.84
2023-02-04T07:21:33.695Z,102869.59
2023-02-04T07:24:05.483Z,102874.94
2023-02-04T07:26:32.647Z,102881.53
2023-02-04T07:29:00.346Z,102884.00
2023-02-04T07:31:27.967Z,102884.94
2023-02-04T07:33:55.276Z,102899.44
2023-02-04T07:36:30.845Z,102894.16
2023-02-04T07:39:00.457Z,102904.47
2023-02-04T07:41:32.846Z,102905.63
2023-02-04T07:44:00.109Z,102910.44
2023-02-04T07:46:26.987Z,102913.88
2023-02-04T07:49:03.383Z,102929.06
2023-02-04T07:51:33.784Z,102927.50
2023-02-04T07:54:08.780Z,102928.81
2023-02-04T07:56:57.249Z,102935.41
2023-02-04T07:59:25.415Z,102939.72
2023-02-04T08:01:55.473Z,102943.72
2023-02-04T08:04:30.960Z,102958.16
2023-02-04T08:07:03.471Z,102957.41
2023-02-04T08:09:34.613Z,102962.47
2023-02-04T08:12:02.526Z,102969.06
2023-02-04T08:14:37.303Z,102973.19
2023-02-04T08:17:11.872Z,102983.47
2023-02-04T08:19:41.477Z,102983.38
2023-02-04T08:22:11.922Z,102991.78
2023-02-04T08:24:39.279Z,102993.28
2023-02-04T08:27:11.066Z,102996.13
2023-02-04T08:29:41.911Z,103004.81
2023-02-04T08:32:18.423Z,103004.41
2023-02-04T08:35:05.483Z,103005.63
2023-02-04T08:37:39.665Z,103005.81
2023-02-04T08:40:12.109Z,103012.41
2023-02-04T08:42:46.962Z,103013.63
2023-02-04T08:45:14.063Z,103014.28
2023-02-04T08:47:52.036Z,103016.56
2023-02-04T08:50:23.890Z,103009.97
2023-02-04T08:52:50.910Z,103011.38
2023-02-04T08:55:24.254Z,103013.03
2023-02-04T08:57:54.134Z,103017.44
2023-02-04T09:00:24.277Z,103020.69
2023-02-04T09:02:53.930Z,103023.97
2023-02-04T09:05:21.062Z,103027.81
2023-02-04T09:07:50.749Z,103025.13
2023-02-04T09:10:18.144Z,103030.53
2023-02-04T09:12:46.284Z,103031.34
2023-02-04T09:15:15.132Z,103039.47
2023-02-04T09:17:50.235Z,103045.38
2023-02-04T09:20:17.905Z,103054.56
2023-02-04T09:22:45.065Z,103061.00
2023-02-04T09:25:15.130Z,103058.56
2023-02-04T09:27:41.687Z,103069.38
2023-02-04T09:30:10.305Z,103071.81
2023-02-04T09:32:37.450Z,103075.31
2023-02-04T09:35:04.832Z,103075.56
2023-02-04T09:37:31.745Z,103080.97
2023-02-04T09:39:58.750Z,103081.81
2023-02-04T09:42:28.605Z,103083.94
2023-02-04T09:44:55.292Z,103085.56
2023-02-04T09:47:24.307Z,103081.50
2023-02-04T09:49:51.591Z,103092.03
2023-02-04T09:52:18.653Z,103093.94
2023-02-04T09:54:45.363Z,103095.28
2023-02-04T09:57:18.601Z,103101.72
2023-02-04T09:59:45.822Z,103101.22
2023-02-04T10:02:23.738Z,103101.75
2023-02-04T10:04:51.938Z,103099.84
2023-02-04T10:07:22.120Z,103104.44
2023-02-04T10:09:50.003Z,103099.59
2023-02-04T10:12:16.733Z,103104.97
2023-02-04T10:14:43.821Z,103106.59
2023-02-04T10:17:11.726Z,103106.03
2023-02-04T10:19:38.240Z,103113.03
2023-02-04T10:22:11.584Z,103104.97
2023-02-04T10:24:38.820Z,103112.78
2023-02-04T10:27:09.984Z,103115.75
2023-02-04T10:29:36.432Z,103116.84
2023-02-04T10:32:02.943Z,103115.22
2023-02-04T10:34:39.719Z,103113.88
2023-02-04T10:37:20.213Z,103112.53
2023-02-04T10:39:46.955Z,103120.09
2023-02-04T10:42:25.339Z,103117.38
2023-02-04T10:44:52.293Z,103110.63
2023-02-04T10:47:27.144Z,103115.25
2023-02-04T10:49:56.126Z,103108.50
2023-02-04T10:52:24.914Z,103113.63
2023-02-04T10:54:51.468Z,103111.72
2023-02-04T10:57:21.918Z,103119.25
2023-02-04T10:59:50.730Z,103114.91
2023-02-04T11:02:42.249Z,103124.38
2023-02-04T11:05:20.824Z,103126.56
2023-02-04T11:07:48.144Z,103128.16
2023-02-04T11:10:17.610Z,103131.63
2023-02-04T11:13:06.633Z,103128.38
2023-02-04T11:15:40.706Z,103125.66
2023-02-04T11:18:10.400Z,103123.28
2023-02-04T11:20:39.916Z,103131.66
2023-02-04T11:23:25.337Z,103134.09
2023-02-04T11:26:10.270Z,103127.09
2023-02-04T11:29:29.796Z,103134.66
2023-02-04T11:32:00.059Z,103134.09
2023-02-04T11:34:28.612Z,103140.28
2023-02-04T11:37:00.944Z,103145.91
2023-02-04T11:39:38.767Z,103139.34
2023-02-04T11:42:10.692Z,103145.75
2023-02-04T11:44:37.159Z,103151.00
2023-02-04T11:47:07.680Z,103156.84
2023-02-04T11:49:36.366Z,103160.06
2023-02-04T11:52:08.653Z,103160.00
2023-02-04T11:54:36.209Z,103161.59
2023-02-04T11:57:03.271Z,103157.94
2023-02-04T11:59:29.772Z,103163.56
2023-02-04T12:02:17.046Z,103161.66
2023-02-04T12:04:57.688Z,103163.03
2023-02-04T12:07:29.061Z,103161.38
2023-02-04T12:09:56.726Z,103164.03
2023-02-04T12:12:25.416Z,103159.91
2023-02-04T12:15:14.886Z,103170.66
2023-02-04T12:17:44.757Z,103166.31
2023-02-04T12:20:15.216Z,103166.00
2023-02-04T12:22:41.740Z,103170.56
2023-02-04T12:25:08.353Z,103169.00
2023-02-04T12:27:34.847Z,103168.19
2023-02-04T12:30:01.348Z,103173.06
2023-02-04T12:32:31.468Z,103181.69
2023-02-04T12:34:58.096Z,103178.09
2023-02-04T12:37:24.602Z,103185.88
2023-02-04T12:39:51.158Z,103184.50
2023-02-04T12:42:17.689Z,103191.38
2023-02-04T12:44:44.220Z,103189.50
2023-02-04T12:47:10.682Z,103186.16
2023-02-04T12:49:38.255Z,103198.84
2023-02-04T12:52:05.708Z,103192.75
2023-02-04T12:54:32.232Z,103198.91
2023-02-04T12:56:59.020Z,103194.53
2023-02-04T12:59:26.058Z,103194.72
2023-02-04T13:01:52.621Z,103198.34
2023-02-04T13:04:19.236Z,103205.81
2023-02-04T13:06:45.805Z,103202.25
2023-02-04T13:09:12.342Z,103201.38
2023-02-04T13:11:38.932Z,103204.31
2023-02-04T13:14:05.404Z,103206.44
2023-02-04T13:16:32.874Z,103191.28
2023-02-04T13:18:59.429Z,103205.81
2023-02-04T13:21:26.112Z,103202.28
2023-02-04T13:23:52.583Z,103201.88
2023-02-04T13:26:19.090Z,103205.75
2023-02-04T13:28:45.549Z,103210.75
2023-02-04T13:31:12.370Z,103207.81
2023-02-04T13:33:38.924Z,103210.53
2023-02-04T13:36:06.242Z,103214.25
2023-02-04T13:38:32.839Z,103213.22
2023-02-04T13:40:59.374Z,103207.78
2023-02-04T13:43:25.882Z,103220.22
2023-02-04T13:45:52.448Z,103212.06
2023-02-04T13:48:19.231Z,103222.72
2023-02-04T13:50:45.774Z,103221.03
2023-02-04T13:53:12.310Z,103222.13
2023-02-04T13:55:38.801Z,103218.47
2023-02-04T13:58:07.164Z,103218.69
2023-02-04T14:00:33.855Z,103219.56
2023-02-04T14:03:00.545Z,103228.06
2023-02-04T14:05:27.066Z,103225.13
2023-02-04T14:07:53.557Z,103222.66
2023-02-04T14:10:23.123Z,103226.25
2023-02-04T14:12:49.658Z,103226.72
2023-02-04T14:15:17.877Z,103229.41
2023-02-04T14:17:44.376Z,103234.97
2023-02-04T14:20:11.396Z,103228.16
2023-02-04T14:22:37.927Z,103237.88
2023-02-04T14:25:04.841Z,103240.75
2023-02-04T14:27:31.334Z,103247.69
2023-02-04T14:29:57.800Z,103243.56
2023-02-04T14:32:24.311Z,103247.81
2023-02-04T14:34:50.775Z,103249.88
2023-02-04T14:37:17.356Z,103251.28
2023-02-04T14:39:43.825Z,103244.22
2023-02-04T14:42:10.332Z,103258.25
2023-02-04T14:44:36.834Z,103259.09
2023-02-04T14:47:03.360Z,103260.72
2023-02-04T14:49:29.973Z,103261.06
2023-02-04T14:51:56.872Z,103263.16
2023-02-04T14:54:23.421Z,103258.09
2023-02-04T14:56:50.683Z,103258.09
2023-02-04T14:59:17.202Z,103256.81
2023-02-04T15:01:46.248Z,103258.94
2023-02-04T15:04:13.021Z,103262.28
2023-02-04T15:06:39.746Z,103271.13
2023-02-04T15:09:06.220Z,103269.69
2023-02-04T15:11:32.745Z,103273.72
2023-02-04T15:13:59.331Z,103273.94
2023-02-04T15:16:25.877Z,103274.19
2023-02-04T15:18:52.948Z,103277.38
2023-02-04T15:21:19.456Z,103271.91
2023-02-04T15:23:47.343Z,103276.13
2023-02-04T15:26:14.394Z,103281.06
2023-02-04T15:28:40.937Z,103277.00
2023-02-04T15:31:07.469Z,103284.94
2023-02-04T15:33:34.069Z,103278.91
2023-02-04T15:36:00.590Z,103284.09
2023-02-04T15:38:28.934Z,103290.84
2023-02-04T15:40:55.727Z,103290.50
2023-02-04T15:43:22.324Z,103283.19
2023-02-04T15:45:48.889Z,103294.13
2023-02-04T15:48:16.620Z,103292.75
2023-02-04T15:50:43.190Z,103298.09
2023-02-04T15:53:09.675Z,103293.22
2023-02-04T15:55:36.158Z,103284.16
2023-02-04T15:58:02.657Z,103287.31
2023-02-04T16:00:29.181Z,103289.53
2023-02-04T16:02:56.092Z,103290.56
2023-02-04T16:05:22.594Z,103292.34
2023-02-04T16:07:49.373Z,103299.44
2023-02-04T16:10:18.226Z,103298.28
2023-02-04T16:12:45.247Z,103296.22
2023-02-04T16:15:11.749Z,103301.78
2023-02-04T16:17:38.336Z,103302.84
2023-02-04T16:20:05.512Z,103296.81
2023-02-04T16:22:32.451Z,103310.88
2023-02-04T16:24:59.403Z,103302.50
2023-02-04T16:27:26.877Z,103304.13
2023-02-04T16:29:55.355Z,103307.16
2023-02-04T16:32:23.175Z,103307.63
2023-02-04T16:34:49.649Z,103306.00
2023-02-04T16:37:16.571Z,103309.59
2023-02-04T16:39:45.165Z,103313.78
2023-02-04T16:42:12.493Z,103309.59
2023-02-04T16:44:39.248Z,103312.50
2023-02-04T16:47:06.908Z,103317.25
2023-02-04T16:49:33.866Z,103312.38
2023-02-04T16:52:04.249Z,103319.47
2023-02-04T16:54:32.391Z,103322.63
2023-02-04T16:57:00.512Z,103326.00
2023-02-04T16:59:28.832Z,103324.81
2023-02-04T17:01:57.861Z,103325.25
2023-02-04T17:04:25.214Z,103330.84
2023-02-04T17:06:52.683Z,103334.81
2023-02-04T17:09:19.681Z,103330.34
2023-02-04T17:11:46.225Z,103339.41
2023-02-04T17:14:16.735Z,103345.22
2023-02-04T17:16:44.157Z,103347.53
2023-02-04T17:19:11.382Z,103345.31
2023-02-04T17:21:39.235Z,103348.69
2023-02-04T17:24:07.201Z,103352.63
2023-02-04T17:26:37.515Z,103346.91
2023-02-04T17:29:11.933Z,103353.97
2023-02-04T17:31:38.977Z,103358.00
2023-02-04T17:34:06.203Z,103355.56
2023-02-04T17:36:32.821Z,103354.50
2023-02-04T17:38:59.428Z,103367.28
2023-02-04T17:41:26.009Z,103363.44
2023-02-04T17:43:52.572Z,103364.97
2023-02-04T17:46:19.185Z,103367.38
2023-02-04T17:48:46.638Z,103367.44
2023-02-04T17:51:13.146Z,103366.25
2023-02-04T17:53:40.540Z,103362.47
2023-02-04T17:56:11.162Z,103367.66
2023-02-04T17:58:37.822Z,103366.06
2023-02-04T18:01:11.438Z,103372.69
2023-02-04T18:03:38.478Z,103363.91
2023-02-04T18:06:28.801Z,103366.63
2023-02-04T18:09:01.949Z,103371.41
2023-02-04T18:11:36.732Z,103367.31
2023-02-04T18:14:13.131Z,103366.31
2023-02-04T18:16:39.949Z,103362.47
2023-02-04T18:19:15.841Z,103369.66
2023-02-04T18:21:42.383Z,103369.28
2023-02-04T18:24:08.768Z,103368.44
2023-02-04T18:26:39.802Z,103368.44
2023-02-04T18:29:35.637Z,103367.84
2023-02-04T18:32:19.626Z,103380.19
2023-02-04T18:34:48.407Z,103376.94
2023-02-04T18:37:28.332Z,103380.06
2023-02-04T18:40:09.947Z,103385.59
2023-02-04T18:42:41.746Z,103391.56
2023-02-04T18:45:28.086Z,103391.19
2023-02-04T18:48:22.867Z,103401.47
2023-02-04T18:50:51.592Z,103396.16
2023-02-04T18:53:26.846Z,103391.69
2023-02-04T18:55:55.610Z,103394.56
2023-02-04T18:58:35.730Z,103390.06
2023-02-04T19:01:10.968Z,103393.56
2023-02-04T19:03:45.696Z,103399.31
2023-02-04T19:06:39.368Z,103405.53
2023-02-04T19:09:12.165Z,103407.38
2023-02-04T19:11:42.056Z,103403.72
2023-02-04T19:14:25.544Z,103403.53
2023-02-04T19:16:54.151Z,103404.16
2023-02-04T19:19:30.182Z,103420.97
2023-02-04T19:21:56.795Z,103418.94
2023-02-04T19:24:29.905Z,103418.75
2023-02-04T19:27:15.547Z,103421.03
2023-02-04T19:29:48.193Z,103424.50
2023-02-04T19:32:23.356Z,103431.28
2023-02-04T19:34:51.915Z,103428.44
2023-02-04T19:37:23.133Z,103440.34
2023-02-04T19:39:53.971Z,103446.09
2023-02-04T19:42:33.626Z,103440.56
2023-02-04T19:45:01.828Z,103442.41
2023-02-04T19:47:42.589Z,103439.13
2023-02-04T19:50:12.478Z,103441.41
2023-02-04T19:52:44.630Z,103441.41
2023-02-04T19:55:17.355Z,103448.41
2023-02-04T19:57:45.441Z,103450.03
2023-02-04T20:00:36.497Z,103458.03
2023-02-04T20:03:13.263Z,103449.25
2023-02-04T20:05:41.275Z,103446.78
2023-02-04T20:08:44.153Z,103451.91
2023-02-04T20:11:25.740Z,103456.00
2023-02-04T20:13:55.746Z,103452.94
2023-02-04T20:16:52.900Z,103454.78
2023-02-04T20:19:27.055Z,103452.34
2023-02-04T20:22:20.998Z,103460.53
2023-02-04T20:24:50.240Z,103456.03
2023-02-04T20:27:16.733Z,103460.94
2023-02-04T20:29:43.262Z,103461.75
2023-02-04T20:32:28.549Z,103453.16
2023-02-04T20:35:31.995Z,103462.78
2023-02-04T20:38:00.952Z,103461.78
2023-02-04T20:40:32.531Z,103472.44
2023-02-04T20:43:17.715Z,103472.44
2023-02-04T20:45:50.921Z,103476.53
2023-02-04T20:48:17.382Z,103480.81
2023-02-04T20:50:44.728Z,103472.44
2023-02-04T20:53:40.207Z,103481.44
2023-02-04T20:56:26.463Z,103476.31
2023-02-04T20:59:11.682Z,103473.25
2023-02-04T21:01:49.712Z,103476.94
2023-02-04T21:04:30.779Z,103471.00
2023-02-04T21:07:03.993Z,103472.22
2023-02-04T21:09:32.668Z,103471.00
2023-02-04T21:12:00.702Z,103483.47
2023-02-04T21:14:28.074Z,103478.16
2023-02-04T21:16:55.204Z,103491.69
2023-02-04T21:19:23.212Z,103484.91
2023-02-04T21:21:49.830Z,103484.91
2023-02-04T21:24:16.535Z,103484.69
2023-02-04T21:26:43.128Z,103485.13
2023-02-04T21:29:11.300Z,103475.09
2023-02-04T21:31:38.049Z,103486.31
2023-02-04T21:34:04.843Z,103483.06
2023-02-04T21:36:31.576Z,103488.75
2023-02-04T21:38:58.237Z,103496.97
2023-02-04T21:41:25.125Z,103498.59
2023-02-04T21:43:51.820Z,103496.56
2023-02-04T21:46:18.893Z,103502.47
2023-02-04T21:48:45.789Z,103497.16
2023-02-04T21:51:14.094Z,103501.50
2023-02-04T21:53:41.216Z,103506.16
2023-02-04T21:56:08.527Z,103503.94
2023-02-04T21:58:35.436Z,103499.00
2023-02-04T22:01:02.020Z,103500.22
2023-02-04T22:03:28.665Z,103496.13
2023-02-04T22:05:55.457Z,103496.53
2023-02-04T22:08:22.346Z,103505.09
2023-02-04T22:10:48.872Z,103496.50
2023-02-04T22:13:15.416Z,103498.75
2023-02-04T22:15:42.004Z,103503.03
2023-02-04T22:18:08.566Z,103494.03
2023-02-04T22:20:35.124Z,103503.88
2023-02-04T22:23:01.656Z,103494.91
2023-02-04T22:25:28.207Z,103492.84
2023-02-04T22:27:54.784Z,103486.69
2023-02-04T22:30:21.360Z,103499.81
2023-02-04T22:32:47.891Z,103491.81
2023-02-04T22:35:15.024Z,103490.78
2023-02-04T22:37:42.421Z,103492.03
2023-02-04T22:40:10.941Z,103493.28
2023-02-04T22:42:37.467Z,103491.44
2023-02-04T22:45:05.065Z,103484.47
2023-02-04T22:47:31.633Z,103482.22
2023-02-04T22:49:58.153Z,103482.41
2023-02-04T22:52:24.698Z,103482.22
2023-02-04T22:54:51.914Z,103492.03
2023-02-04T22:57:18.419Z,103483.03
2023-02-04T22:59:45.012Z,103486.31
2023-02-04T23:02:11.692Z,103489.59
2023-02-04T23:04:38.249Z,103486.94
2023-02-04T23:07:05.005Z,103487.78
2023-02-04T23:09:32.728Z,103494.50
2023-02-04T23:12:12.579Z,103487.16
2023-02-04T23:14:46.984Z,103487.16
2023-02-04T23:17:15.116Z,103490.41
2023-02-04T23:19:41.790Z,103497.38
2023-02-04T23:22:09.569Z,103489.41
2023-02-04T23:24:36.476Z,103486.53
2023-02-04T23:27:04.207Z,103487.38
2023-02-04T23:29:32.307Z,103482.63
2023-02-04T23:31:59.214Z,103483.88
2023-02-04T23:34:25.819Z,103470.38
2023-02-04T23:36:52.492Z,103472.84
2023-02-04T23:39:20.510Z,103469.94
2023-02-04T23:41:47.985Z,103467.91
2023-02-04T23:44:14.561Z,103472.22
2023-02-04T23:46:41.028Z,103474.88
2023-02-04T23:49:07.562Z,103467.91
2023-02-04T23:51:34.069Z,103481.03
2023-02-04T23:54:00.944Z,103487.59
2023-02-04T23:56:27.573Z,103484.09
2023-02-04T23:58:54.548Z,103481.44
